Weather at McCarran International Airport

Public forecast

Using degrees Fahrenheit for public forecast. Weather courtesy of forecast.io.

Current aviation weather report (METAR) for McCarran International Airport

Retrieved 2021/01/21 16:56 UTC (13 minutes ago):

KLAS 211656Z 00000KT 10SM FEW080 FEW250 11/01 A3010 RMK AO2 SLP191 T01060006

Aviation forecast (TAF) for McCarran International Airport

Retrieved 2021/01/21 12:24 UTC (5 hours ago):

TAF KLAS 211121Z 2112/2218 23005KT P6SM FEW080 FM211700 06006KT P6SM FEW080 FM220200 21007KT P6SM SCT250 FM221700 19010KT P6SM BKN080 OVC120